createdAt,value
2018-12-26T00:01:31.546Z,102250.02
2018-12-26T00:03:59.950Z,102238.03
2018-12-26T00:06:28.410Z,102244.22
2018-12-26T00:08:56.839Z,102239.85
2018-12-26T00:11:25.298Z,102248.09
2018-12-26T00:13:53.748Z,102252.44
2018-12-26T00:16:22.201Z,102240.88
2018-12-26T00:18:50.637Z,102243.45
2018-12-26T00:21:19.097Z,102242.30
2018-12-26T00:23:47.579Z,102228.11
2018-12-26T00:26:15.980Z,102230.36
2018-12-26T00:28:44.445Z,102221.86
2018-12-26T00:31:14.532Z,102222.34
2018-12-26T00:33:43.085Z,102220.66
2018-12-26T00:36:11.533Z,102218.31
2018-12-26T00:38:40.026Z,102218.61
2018-12-26T00:41:08.475Z,102221.45
2018-12-26T00:43:36.927Z,102229.20
2018-12-26T00:46:05.366Z,102223.82
2018-12-26T00:48:33.820Z,102221.19
2018-12-26T00:51:02.258Z,102230.98
2018-12-26T00:53:30.721Z,102228.53
2018-12-26T00:55:59.229Z,102232.53
2018-12-26T00:58:27.681Z,102241.16
2018-12-26T01:00:56.123Z,102233.08
2018-12-26T01:03:24.578Z,102235.45
2018-12-26T01:05:53.015Z,102222.89
2018-12-26T01:08:21.480Z,102229.56
2018-12-26T01:10:49.923Z,102224.67
2018-12-26T01:13:18.375Z,102217.20
2018-12-26T01:15:47.220Z,102216.98
2018-12-26T01:18:15.647Z,102209.36
2018-12-26T01:20:44.115Z,102217.60
2018-12-26T01:23:12.552Z,102213.16
2018-12-26T01:25:40.998Z,102217.26
2018-12-26T01:28:09.418Z,102216.45
2018-12-26T01:30:37.879Z,102206.66
2018-12-26T01:33:06.342Z,102207.42
2018-12-26T01:35:34.774Z,102209.91
2018-12-26T01:38:03.219Z,102214.75
2018-12-26T01:40:31.668Z,102206.66
2018-12-26T01:43:00.125Z,102207.42
2018-12-26T01:45:28.584Z,102201.30
2018-12-26T01:47:57.020Z,102202.05
2018-12-26T01:50:25.464Z,102203.06
2018-12-26T01:52:53.911Z,102208.89
2018-12-26T01:55:22.339Z,102203.52
2018-12-26T01:57:50.947Z,102206.19
2018-12-26T02:00:19.387Z,102208.16
2018-12-26T02:02:47.842Z,102204.34
2018-12-26T02:05:16.292Z,102209.30
2018-12-26T02:07:44.743Z,102212.71
2018-12-26T02:10:13.203Z,102217.88
2018-12-26T02:12:41.668Z,102216.98
2018-12-26T02:15:10.115Z,102203.55
2018-12-26T02:17:38.559Z,102203.80
2018-12-26T02:20:08.147Z,102218.77
2018-12-26T02:22:36.597Z,102215.22
2018-12-26T02:25:05.682Z,102215.48
2018-12-26T02:27:34.124Z,102224.73
2018-12-26T02:30:02.583Z,102218.00
2018-12-26T02:32:31.026Z,102213.60
2018-12-26T02:34:59.463Z,102209.92
2018-12-26T02:37:27.899Z,102208.30
2018-12-26T02:39:56.410Z,102208.00
2018-12-26T02:42:24.820Z,102213.60
2018-12-26T02:44:53.266Z,102204.08
2018-12-26T02:47:21.715Z,102203.73
2018-12-26T02:49:50.144Z,102200.08
2018-12-26T02:52:18.589Z,102201.28
2018-12-26T02:54:47.020Z,102191.10
2018-12-26T02:57:15.479Z,102191.72
2018-12-26T02:59:43.925Z,102200.27
2018-12-26T03:02:12.386Z,102198.28
2018-12-26T03:04:40.867Z,102196.27
2018-12-26T03:07:09.254Z,102189.01
2018-12-26T03:09:37.687Z,102193.06
2018-12-26T03:12:06.147Z,102189.01
2018-12-26T03:14:34.643Z,102188.03
2018-12-26T03:17:03.125Z,102182.73
2018-12-26T03:19:31.556Z,102189.73
2018-12-26T03:22:00.019Z,102190.02
2018-12-26T03:24:28.483Z,102195.63
2018-12-26T03:26:56.938Z,102187.44
2018-12-26T03:29:25.369Z,102177.11
2018-12-26T03:31:53.837Z,102186.43
2018-12-26T03:34:22.279Z,102182.73
2018-12-26T03:36:50.744Z,102181.23
2018-12-26T03:39:19.178Z,102181.56
2018-12-26T03:41:47.611Z,102187.69
2018-12-26T03:44:16.067Z,102187.69
2018-12-26T03:46:44.838Z,102176.77
2018-12-26T03:49:13.306Z,102183.84
2018-12-26T03:51:41.768Z,102186.42
2018-12-26T03:54:10.220Z,102194.69
2018-12-26T03:56:38.656Z,102188.84
2018-12-26T03:59:07.102Z,102185.87
2018-12-26T04:01:35.540Z,102195.70
2018-12-26T04:04:04.050Z,102189.34
2018-12-26T04:06:32.664Z,102181.91
2018-12-26T04:09:01.199Z,102187.95
2018-12-26T04:11:30.920Z,102183.34
2018-12-26T04:13:59.363Z,102183.74
2018-12-26T04:16:28.906Z,102188.02
2018-12-26T04:18:57.444Z,102193.89
2018-12-26T04:21:25.969Z,102187.16
2018-12-26T04:23:54.584Z,102191.03
2018-12-26T04:26:23.031Z,102201.42
2018-12-26T04:28:51.494Z,102198.01
2018-12-26T04:31:19.934Z,102203.72
2018-12-26T04:33:48.387Z,102197.41
2018-12-26T04:36:16.851Z,102200.59
2018-12-26T04:38:45.294Z,102199.32
2018-12-26T04:41:13.752Z,102205.01
2018-12-26T04:43:42.205Z,102201.53
2018-12-26T04:46:10.665Z,102201.75
2018-12-26T04:48:39.099Z,102205.41
2018-12-26T04:51:07.556Z,102201.75
2018-12-26T04:53:36.661Z,102207.37
2018-12-26T04:56:05.136Z,102206.84
2018-12-26T04:58:33.573Z,102205.90
2018-12-26T05:01:02.032Z,102208.13
2018-12-26T05:03:30.566Z,102216.75
2018-12-26T05:05:59.035Z,102207.41
2018-12-26T05:08:27.535Z,102208.08
2018-12-26T05:10:55.985Z,102214.66
2018-12-26T05:13:24.461Z,102214.72
2018-12-26T05:15:52.905Z,102210.77
2018-12-26T05:18:21.368Z,102214.69
2018-12-26T05:20:49.818Z,102214.06
2018-12-26T05:23:18.274Z,102215.10
2018-12-26T05:25:46.731Z,102210.07
2018-12-26T05:28:15.200Z,102210.83
2018-12-26T05:30:43.641Z,102210.98
2018-12-26T05:33:12.097Z,102202.50
2018-12-26T05:35:40.545Z,102209.00
2018-12-26T05:38:09.043Z,102202.66
2018-12-26T05:40:37.533Z,102200.42
2018-12-26T05:43:05.989Z,102208.30
2018-12-26T05:45:34.453Z,102206.07
2018-12-26T05:48:02.887Z,102214.75
2018-12-26T05:50:31.345Z,102214.26
2018-12-26T05:52:59.791Z,102207.81
2018-12-26T05:55:28.269Z,102210.73
2018-12-26T05:57:56.717Z,102207.02
2018-12-26T06:00:25.194Z,102212.34
2018-12-26T06:02:53.647Z,102215.87
2018-12-26T06:05:22.114Z,102226.68
2018-12-26T06:07:50.552Z,102220.04
2018-12-26T06:10:19.002Z,102211.95
2018-12-26T06:12:47.442Z,102218.40
2018-12-26T06:15:15.897Z,102217.16
2018-12-26T06:17:44.343Z,102226.05
2018-12-26T06:20:12.853Z,102227.70
2018-12-26T06:22:41.309Z,102228.29
2018-12-26T06:25:09.773Z,102232.42
2018-12-26T06:27:38.214Z,102231.14
2018-12-26T06:30:07.348Z,102233.27
2018-12-26T06:32:35.820Z,102230.08
2018-12-26T06:35:04.440Z,102226.11
2018-12-26T06:37:32.896Z,102225.75
2018-12-26T06:40:01.340Z,102231.18
2018-12-26T06:42:29.793Z,102228.91
2018-12-26T06:44:58.247Z,102222.41
2018-12-26T06:47:26.800Z,102228.25
2018-12-26T06:49:55.259Z,102227.27
2018-12-26T06:52:23.721Z,102230.25
2018-12-26T06:54:52.163Z,102228.87
2018-12-26T06:57:20.637Z,102224.16
2018-12-26T06:59:49.080Z,102221.27
2018-12-26T07:02:17.554Z,102226.16
2018-12-26T07:04:46.000Z,102228.06
2018-12-26T07:07:14.467Z,102224.52
2018-12-26T07:09:42.901Z,102226.59
2018-12-26T07:12:11.370Z,102233.34
2018-12-26T07:14:40.166Z,102233.93
2018-12-26T07:17:08.634Z,102234.23
2018-12-26T07:19:37.077Z,102240.20
2018-12-26T07:22:05.534Z,102238.23
2018-12-26T07:24:33.983Z,102237.36
2018-12-26T07:27:02.438Z,102235.45
2018-12-26T07:29:30.887Z,102237.72
2018-12-26T07:31:59.354Z,102236.20
2018-12-26T07:34:27.800Z,102236.64
2018-12-26T07:36:56.254Z,102241.05
2018-12-26T07:39:24.694Z,102237.27
2018-12-26T07:41:53.152Z,102234.61
2018-12-26T07:44:21.601Z,102239.67
2018-12-26T07:46:50.064Z,102235.36
2018-12-26T07:49:18.516Z,102231.41
2018-12-26T07:51:47.000Z,102236.25
2018-12-26T07:54:15.445Z,102239.63
2018-12-26T07:56:43.888Z,102232.67
2018-12-26T07:59:12.358Z,102235.98
2018-12-26T08:01:40.831Z,102241.41
2018-12-26T08:04:09.297Z,102246.73
2018-12-26T08:06:37.872Z,102251.55
2018-12-26T08:09:06.973Z,102249.98
2018-12-26T08:11:35.412Z,102247.09
2018-12-26T08:14:03.906Z,102248.04
2018-12-26T08:16:32.333Z,102256.39
2018-12-26T08:19:00.792Z,102242.97
2018-12-26T08:21:29.260Z,102255.55
2018-12-26T08:23:57.710Z,102244.20
2018-12-26T08:26:26.152Z,102249.63
2018-12-26T08:28:54.628Z,102247.67
2018-12-26T08:31:23.090Z,102251.63
2018-12-26T08:33:51.548Z,102247.14
2018-12-26T08:36:19.988Z,102260.80
2018-12-26T08:38:48.481Z,102259.36
2018-12-26T08:41:18.599Z,102250.70
2018-12-26T08:43:47.505Z,102256.00
2018-12-26T08:46:15.988Z,102258.07
2018-12-26T08:48:44.448Z,102260.00
2018-12-26T08:51:12.989Z,102264.36
2018-12-26T08:53:41.441Z,102269.02
2018-12-26T08:56:09.909Z,102261.50
2018-12-26T08:58:38.349Z,102264.04
2018-12-26T09:01:06.806Z,102261.28
2018-12-26T09:03:35.356Z,102266.44
2018-12-26T09:06:03.787Z,102259.77
2018-12-26T09:08:32.229Z,102263.63
2018-12-26T09:11:00.709Z,102263.38
2018-12-26T09:13:29.147Z,102265.91
2018-12-26T09:15:57.631Z,102264.92
2018-12-26T09:18:26.087Z,102271.69
2018-12-26T09:20:54.549Z,102269.59
2018-12-26T09:23:23.000Z,102267.16
2018-12-26T09:25:52.927Z,102259.77
2018-12-26T09:28:21.371Z,102259.38
2018-12-26T09:30:49.832Z,102265.42
2018-12-26T09:33:18.282Z,102261.59
2018-12-26T09:35:46.747Z,102256.66
2018-12-26T09:38:15.199Z,102255.77
2018-12-26T09:40:43.654Z,102263.64
2018-12-26T09:43:12.117Z,102253.86
2018-12-26T09:45:40.583Z,102241.94
2018-12-26T09:48:09.009Z,102243.71
2018-12-26T09:50:37.458Z,102240.87
2018-12-26T09:53:05.898Z,102234.33
2018-12-26T09:55:34.388Z,102223.29
2018-12-26T09:58:02.831Z,102221.47
2018-12-26T10:00:31.298Z,102217.33
2018-12-26T10:02:59.743Z,102216.34
2018-12-26T10:05:28.198Z,102219.42
2018-12-26T10:07:56.654Z,102214.48
2018-12-26T10:10:25.123Z,102209.14
2018-12-26T10:12:53.552Z,102217.45
2018-12-26T10:15:22.009Z,102214.92
2018-12-26T10:17:50.470Z,102219.52
2018-12-26T10:20:18.906Z,102222.43
2018-12-26T10:22:47.367Z,102211.48
2018-12-26T10:25:15.809Z,102215.02
2018-12-26T10:27:44.278Z,102214.88
2018-12-26T10:30:12.723Z,102223.23
2018-12-26T10:32:41.186Z,102212.17
2018-12-26T10:35:09.631Z,102215.50
2018-12-26T10:37:38.089Z,102213.89
2018-12-26T10:40:07.771Z,102214.09
2018-12-26T10:42:36.228Z,102207.81
2018-12-26T10:45:05.223Z,102200.86
2018-12-26T10:47:33.673Z,102197.56
2018-12-26T10:50:02.128Z,102203.57
2018-12-26T10:52:30.596Z,102207.36
2018-12-26T10:54:59.043Z,102195.13
2018-12-26T10:57:27.684Z,102191.78
2018-12-26T10:59:56.206Z,102197.66
2018-12-26T11:02:24.660Z,102192.77
2018-12-26T11:04:53.111Z,102195.87
2018-12-26T11:07:21.595Z,102193.59
2018-12-26T11:09:50.057Z,102194.31
2018-12-26T11:12:18.795Z,102175.41
2018-12-26T11:14:47.241Z,102185.45
2018-12-26T11:17:15.714Z,102185.36
2018-12-26T11:19:45.101Z,102191.95
2018-12-26T11:22:13.556Z,102180.74
2018-12-26T11:24:42.015Z,102191.55
2018-12-26T11:27:10.475Z,102179.59
2018-12-26T11:29:38.920Z,102182.45
2018-12-26T11:32:09.019Z,102189.75
2018-12-26T11:34:37.495Z,102182.98
2018-12-26T11:37:05.950Z,102180.67
2018-12-26T11:39:34.560Z,102180.32
2018-12-26T11:42:03.019Z,102168.19
2018-12-26T11:44:33.800Z,102182.16
2018-12-26T11:47:02.302Z,102183.25
2018-12-26T11:49:30.742Z,102176.05
2018-12-26T11:51:59.225Z,102181.53
2018-12-26T11:54:27.758Z,102182.50
2018-12-26T11:56:56.228Z,102186.55
2018-12-26T11:59:27.285Z,102177.66
2018-12-26T12:01:54.936Z,102180.64
2018-12-26T12:04:23.426Z,102183.92
2018-12-26T12:06:51.891Z,102179.41
2018-12-26T12:09:20.396Z,102186.42
2018-12-26T12:11:49.007Z,102184.66
2018-12-26T12:14:17.564Z,102184.78
2018-12-26T12:16:46.056Z,102188.51
2018-12-26T12:19:16.918Z,102182.23
2018-12-26T12:21:45.368Z,102187.34
2018-12-26T12:24:14.154Z,102185.29
2018-12-26T12:26:42.603Z,102185.02
2018-12-26T12:29:11.056Z,102187.07
2018-12-26T12:31:39.514Z,102184.40
2018-12-26T12:34:08.149Z,102183.65
2018-12-26T12:36:36.600Z,102189.75
2018-12-26T12:39:06.610Z,102187.80
2018-12-26T12:41:35.056Z,102195.67
2018-12-26T12:44:03.684Z,102196.02
2018-12-26T12:46:32.211Z,102192.33
2018-12-26T12:49:00.803Z,102198.23
2018-12-26T12:51:29.237Z,102194.56
2018-12-26T12:53:57.718Z,102200.07
2018-12-26T12:56:26.172Z,102200.81
2018-12-26T12:58:54.721Z,102197.39
2018-12-26T13:01:23.242Z,102206.42
2018-12-26T13:03:51.722Z,102199.20
2018-12-26T13:06:20.174Z,102201.73
2018-12-26T13:08:48.649Z,102201.66
2018-12-26T13:11:17.126Z,102193.42
2018-12-26T13:13:45.632Z,102201.27
2018-12-26T13:16:14.075Z,102198.68
2018-12-26T13:18:42.550Z,102198.14
2018-12-26T13:21:10.983Z,102196.36
2018-12-26T13:23:39.441Z,102193.45
2018-12-26T13:26:07.914Z,102198.63
2018-12-26T13:28:36.364Z,102200.45
2018-12-26T13:31:05.425Z,102197.73
2018-12-26T13:33:33.938Z,102201.06
2018-12-26T13:36:02.426Z,102203.42
2018-12-26T13:38:30.904Z,102193.72
2018-12-26T13:40:59.375Z,102202.35
2018-12-26T13:43:27.833Z,102200.92
2018-12-26T13:45:56.277Z,102199.77
2018-12-26T13:48:24.733Z,102208.00
2018-12-26T13:50:53.196Z,102200.66
2018-12-26T13:53:21.634Z,102201.86
2018-12-26T13:55:50.101Z,102200.92
2018-12-26T13:58:18.542Z,102198.36
2018-12-26T14:00:47.882Z,102197.69
2018-12-26T14:03:16.352Z,102200.57
2018-12-26T14:05:44.969Z,102193.99
2018-12-26T14:08:13.423Z,102192.83
2018-12-26T14:10:41.876Z,102188.31
2018-12-26T14:13:10.331Z,102183.80
2018-12-26T14:15:38.809Z,102187.67
2018-12-26T14:18:07.285Z,102193.77
2018-12-26T14:20:35.722Z,102194.73
2018-12-26T14:23:04.180Z,102195.02
2018-12-26T14:25:32.632Z,102197.86
2018-12-26T14:28:01.108Z,102198.83
2018-12-26T14:30:29.571Z,102195.58
2018-12-26T14:32:58.091Z,102190.02
2018-12-26T14:35:26.494Z,102189.00
2018-12-26T14:37:54.993Z,102189.13
2018-12-26T14:40:23.449Z,102189.80
2018-12-26T14:42:51.895Z,102191.77
2018-12-26T14:45:20.355Z,102190.97
2018-12-26T14:47:48.803Z,102192.05
2018-12-26T14:50:17.255Z,102194.08
2018-12-26T14:52:45.724Z,102192.79
2018-12-26T14:55:14.216Z,102193.83
2018-12-26T14:57:42.670Z,102191.77
2018-12-26T15:00:19.708Z,102190.27
2018-12-26T15:02:41.309Z,102192.87
2018-12-26T15:05:09.755Z,102190.76
2018-12-26T15:07:38.254Z,102196.41
2018-12-26T15:10:07.032Z,102196.88
2018-12-26T15:12:35.505Z,102197.00
2018-12-26T15:15:04.312Z,102191.77
2018-12-26T15:17:32.774Z,102197.95
2018-12-26T15:20:01.218Z,102198.57
2018-12-26T15:22:29.702Z,102197.41
2018-12-26T15:24:58.143Z,102205.30
2018-12-26T15:27:26.596Z,102203.61
2018-12-26T15:29:55.053Z,102205.42
2018-12-26T15:32:23.509Z,102212.37
2018-12-26T15:34:51.988Z,102205.83
2018-12-26T15:37:20.552Z,102203.53
2018-12-26T15:39:48.993Z,102199.26
2018-12-26T15:42:17.639Z,102202.05
2018-12-26T15:44:46.121Z,102204.20
2018-12-26T15:47:14.548Z,102203.75
2018-12-26T15:49:43.007Z,102202.64
2018-12-26T15:52:11.517Z,102201.84
2018-12-26T15:54:39.982Z,102198.80
2018-12-26T15:57:08.430Z,102195.11
2018-12-26T15:59:36.912Z,102195.05
2018-12-26T16:02:05.362Z,102201.91
2018-12-26T16:04:33.834Z,102205.31
2018-12-26T16:07:02.294Z,102195.32
2018-12-26T16:09:30.764Z,102198.77
2018-12-26T16:11:59.209Z,102195.66
2018-12-26T16:14:27.684Z,102200.33
2018-12-26T16:16:56.187Z,102196.83
2018-12-26T16:19:24.624Z,102200.55
2018-12-26T16:21:53.058Z,102202.73
2018-12-26T16:24:21.518Z,102201.34
2018-12-26T16:26:49.972Z,102202.18
2018-12-26T16:29:18.425Z,102192.92
2018-12-26T16:31:46.862Z,102196.61
2018-12-26T16:34:15.410Z,102195.78
2018-12-26T16:36:43.806Z,102197.41
2018-12-26T16:39:12.250Z,102198.37
2018-12-26T16:41:40.746Z,102194.28
2018-12-26T16:44:09.193Z,102197.81
2018-12-26T16:46:37.640Z,102199.38
2018-12-26T16:49:06.087Z,102196.73
2018-12-26T16:51:34.570Z,102199.10
2018-12-26T16:54:03.099Z,102196.20
2018-12-26T16:56:31.571Z,102201.34
2018-12-26T16:59:00.012Z,102202.11
2018-12-26T17:01:28.486Z,102199.72
2018-12-26T17:03:56.968Z,102202.23
2018-12-26T17:06:25.467Z,102208.02
2018-12-26T17:08:53.930Z,102205.43
2018-12-26T17:11:22.380Z,102207.95
2018-12-26T17:13:50.842Z,102209.30
2018-12-26T17:16:19.300Z,102209.92
2018-12-26T17:18:47.772Z,102213.98
2018-12-26T17:21:16.239Z,102210.59
2018-12-26T17:23:44.705Z,102218.84
2018-12-26T17:26:13.153Z,102217.45
2018-12-26T17:28:41.609Z,102217.55
2018-12-26T17:31:10.070Z,102220.37
2018-12-26T17:33:38.563Z,102227.91
2018-12-26T17:36:06.995Z,102224.13
2018-12-26T17:38:35.477Z,102225.20
2018-12-26T17:41:03.988Z,102226.61
2018-12-26T17:43:32.465Z,102224.98
2018-12-26T17:46:00.916Z,102228.80
2018-12-26T17:48:29.362Z,102231.87
2018-12-26T17:50:57.889Z,102230.86
2018-12-26T17:53:35.257Z,102233.16
2018-12-26T17:56:09.758Z,102235.25
2018-12-26T17:58:47.496Z,102235.01
2018-12-26T18:01:21.988Z,102237.56
2018-12-26T18:03:50.440Z,102238.27
2018-12-26T18:06:18.902Z,102241.80
2018-12-26T18:08:47.359Z,102246.20
2018-12-26T18:11:15.819Z,102247.16
2018-12-26T18:13:44.284Z,102248.66
2018-12-26T18:16:12.860Z,102241.65
2018-12-26T18:18:41.313Z,102238.89
2018-12-26T18:21:09.814Z,102248.27
2018-12-26T18:23:38.256Z,102248.91
2018-12-26T18:26:06.811Z,102245.13
2018-12-26T18:28:35.285Z,102254.91
2018-12-26T18:31:03.751Z,102247.99
2018-12-26T18:33:32.211Z,102251.03
2018-12-26T18:36:00.689Z,102242.39
2018-12-26T18:38:29.157Z,102251.10
2018-12-26T18:40:57.674Z,102244.64
2018-12-26T18:43:26.122Z,102242.73
2018-12-26T18:45:54.595Z,102239.20
2018-12-26T18:48:23.067Z,102249.22
2018-12-26T18:50:51.532Z,102244.45
2018-12-26T18:53:19.996Z,102246.21
2018-12-26T18:55:48.427Z,102249.90
2018-12-26T18:58:16.896Z,102251.72
2018-12-26T19:00:45.339Z,102251.94
2018-12-26T19:03:13.791Z,102250.64
2018-12-26T19:05:42.239Z,102254.91
2018-12-26T19:08:10.714Z,102255.53
2018-12-26T19:10:39.179Z,102254.02
2018-12-26T19:13:07.666Z,102257.98
2018-12-26T19:15:36.108Z,102253.34
2018-12-26T19:18:04.582Z,102263.16
2018-12-26T19:20:33.026Z,102258.88
2018-12-26T19:23:01.504Z,102265.17
2018-12-26T19:25:29.974Z,102265.61
2018-12-26T19:27:58.452Z,102265.84
2018-12-26T19:30:26.896Z,102258.31
2018-12-26T19:32:55.390Z,102256.56
2018-12-26T19:35:23.826Z,102258.11
2018-12-26T19:37:52.330Z,102257.21
2018-12-26T19:40:20.783Z,102262.05
2018-12-26T19:42:49.254Z,102261.70
2018-12-26T19:45:17.704Z,102260.91
2018-12-26T19:47:46.206Z,102267.55
2018-12-26T19:50:14.673Z,102260.69
2018-12-26T19:52:43.200Z,102260.56
2018-12-26T19:55:11.653Z,102263.42
2018-12-26T19:57:40.131Z,102274.23
2018-12-26T20:00:10.832Z,102269.55
2018-12-26T20:02:39.284Z,102266.06
2018-12-26T20:05:07.742Z,102270.90
2018-12-26T20:07:36.206Z,102272.86
2018-12-26T20:10:07.312Z,102265.52
2018-12-26T20:12:35.771Z,102264.91
2018-12-26T20:15:04.797Z,102267.30
2018-12-26T20:17:33.259Z,102266.27
2018-12-26T20:20:01.721Z,102265.46
2018-12-26T20:22:30.180Z,102270.69
2018-12-26T20:24:58.717Z,102265.95
2018-12-26T20:27:27.165Z,102267.22
2018-12-26T20:29:55.637Z,102262.05
2018-12-26T20:32:24.072Z,102260.48
2018-12-26T20:34:52.546Z,102257.84
2018-12-26T20:37:20.999Z,102262.27
2018-12-26T20:39:49.480Z,102262.27
2018-12-26T20:42:17.931Z,102259.95
2018-12-26T20:44:46.404Z,102268.30
2018-12-26T20:47:14.874Z,102261.92
2018-12-26T20:49:43.335Z,102265.98
2018-12-26T20:52:13.323Z,102254.39
2018-12-26T20:54:41.821Z,102252.78
2018-12-26T20:57:10.247Z,102254.29
2018-12-26T20:59:38.732Z,102258.94
2018-12-26T21:02:07.200Z,102254.84
2018-12-26T21:04:35.685Z,102259.80
2018-12-26T21:07:04.147Z,102256.97
2018-12-26T21:09:32.603Z,102266.69
2018-12-26T21:12:01.071Z,102263.95
2018-12-26T21:14:29.529Z,102260.69
2018-12-26T21:16:57.986Z,102258.17
2018-12-26T21:19:26.454Z,102258.78
2018-12-26T21:21:54.928Z,102259.88
2018-12-26T21:24:23.382Z,102257.42
2018-12-26T21:26:51.837Z,102257.89
2018-12-26T21:29:20.296Z,102254.44
2018-12-26T21:31:48.854Z,102255.52
2018-12-26T21:34:17.295Z,102251.85
2018-12-26T21:36:45.769Z,102253.87
2018-12-26T21:39:14.225Z,102261.02
2018-12-26T21:41:42.708Z,102254.16
2018-12-26T21:44:11.160Z,102260.89
2018-12-26T21:46:39.631Z,102257.09
2018-12-26T21:49:08.083Z,102258.16
2018-12-26T21:51:36.557Z,102253.48
2018-12-26T21:54:05.021Z,102253.89
2018-12-26T21:56:33.651Z,102251.85
2018-12-26T21:59:02.165Z,102248.64
2018-12-26T22:01:31.168Z,102246.45
2018-12-26T22:03:59.613Z,102246.65
2018-12-26T22:06:28.102Z,102237.42
2018-12-26T22:08:56.553Z,102238.84
2018-12-26T22:11:25.031Z,102241.30
2018-12-26T22:13:53.490Z,102249.51
2018-12-26T22:16:21.955Z,102247.30
2018-12-26T22:18:50.404Z,102245.39
2018-12-26T22:21:18.875Z,102242.45
2018-12-26T22:23:47.354Z,102244.50
2018-12-26T22:26:15.825Z,102251.02
2018-12-26T22:28:44.279Z,102252.66
2018-12-26T22:31:12.742Z,102255.91
2018-12-26T22:33:41.209Z,102249.79
2018-12-26T22:36:09.667Z,102257.07
2018-12-26T22:38:38.146Z,102263.20
2018-12-26T22:41:06.593Z,102263.20
2018-12-26T22:43:35.072Z,102257.97
2018-12-26T22:46:03.522Z,102253.95
2018-12-26T22:48:31.986Z,102256.00
2018-12-26T22:51:00.455Z,102251.92
2018-12-26T22:53:28.943Z,102257.77
2018-12-26T22:55:57.389Z,102253.55
2018-12-26T22:58:25.853Z,102250.63
2018-12-26T23:00:54.302Z,102254.07
2018-12-26T23:03:22.750Z,102255.64
2018-12-26T23:05:51.260Z,102253.16
2018-12-26T23:08:19.682Z,102249.68
2018-12-26T23:10:48.167Z,102247.31
2018-12-26T23:13:16.626Z,102241.80
2018-12-26T23:15:45.125Z,102240.83
2018-12-26T23:18:13.583Z,102239.55
2018-12-26T23:20:42.056Z,102234.30
2018-12-26T23:23:10.498Z,102232.06
2018-12-26T23:25:38.978Z,102230.77
2018-12-26T23:28:07.494Z,102226.37
2018-12-26T23:30:35.958Z,102226.98
2018-12-26T23:33:04.725Z,102218.95
2018-12-26T23:35:33.201Z,102219.08
2018-12-26T23:38:01.653Z,102219.84
2018-12-26T23:40:30.126Z,102220.59
2018-12-26T23:42:58.572Z,102219.08
2018-12-26T23:45:27.011Z,102214.86
2018-12-26T23:47:55.512Z,102212.48
2018-12-26T23:50:23.991Z,102206.17
2018-12-26T23:52:52.450Z,102203.80
2018-12-26T23:55:20.902Z,102211.14
2018-12-26T23:57:49.364Z,102209.36
